sensor_id;sensor_type;location;lat;lon;timestamp;temperature;humidity
16767;DHT22;8501;49.926;8.404;2023-04-24T00:02:14;12.80;99.90
16767;DHT22;8501;49.926;8.404;2023-04-24T00:04:41;12.80;99.90
16767;DHT22;8501;49.926;8.404;2023-04-24T00:07:10;12.80;99.90
16767;DHT22;8501;49.926;8.404;2023-04-24T00:09:35;12.80;99.90
16767;DHT22;8501;49.926;8.404;2023-04-24T00:12:01;12.80;99.90
16767;DHT22;8501;49.926;8.404;2023-04-24T00:14:30;12.70;99.90
16767;DHT22;8501;49.926;8.404;2023-04-24T00:16:56;12.70;99.90
16767;DHT22;8501;49.926;8.404;2023-04-24T00:19:21;12.70;99.90
16767;DHT22;8501;49.926;8.404;2023-04-24T00:21:47;12.70;99.90
16767;DHT22;8501;49.926;8.404;2023-04-24T00:24:16;12.60;99.90
16767;DHT22;8501;49.926;8.404;2023-04-24T00:26:42;12.70;99.90
16767;DHT22;8501;49.926;8.404;2023-04-24T00:29:09;12.70;99.90
16767;DHT22;8501;49.926;8.404;2023-04-24T00:31:35;12.60;99.90
16767;DHT22;8501;49.926;8.404;2023-04-24T00:34:01;12.60;99.90
16767;DHT22;8501;49.926;8.404;2023-04-24T00:36:27;12.60;99.90
16767;DHT22;8501;49.926;8.404;2023-04-24T00:38:54;12.60;99.90
16767;DHT22;8501;49.926;8.404;2023-04-24T00:41:20;12.70;99.90
16767;DHT22;8501;49.926;8.404;2023-04-24T00:43:46;12.60;99.90
16767;DHT22;8501;49.926;8.404;2023-04-24T00:46:12;12.60;99.90
16767;DHT22;8501;49.926;8.404;2023-04-24T00:48:41;12.60;99.90
16767;DHT22;8501;49.926;8.404;2023-04-24T00:51:08;12.60;99.90
16767;DHT22;8501;49.926;8.404;2023-04-24T00:53:33;12.50;99.90
16767;DHT22;8501;49.926;8.404;2023-04-24T00:56:00;12.50;99.90
16767;DHT22;8501;49.926;8.404;2023-04-24T00:58:26;12.50;99.90
16767;DHT22;8501;49.926;8.404;2023-04-24T01:00:53;12.50;99.90
16767;DHT22;8501;49.926;8.404;2023-04-24T01:03:25;12.50;99.90
16767;DHT22;8501;49.926;8.404;2023-04-24T01:05:52;12.50;99.90
16767;DHT22;8501;49.926;8.404;2023-04-24T01:08:18;12.40;99.90
16767;DHT22;8501;49.926;8.404;2023-04-24T01:10:46;12.40;99.90
16767;DHT22;8501;49.926;8.404;2023-04-24T01:13:12;12.40;99.90
16767;DHT22;8501;49.926;8.404;2023-04-24T01:15:38;12.40;99.90
16767;DHT22;8501;49.926;8.404;2023-04-24T01:18:04;12.40;99.90
16767;DHT22;8501;49.926;8.404;2023-04-24T01:20:30;12.30;99.90
16767;DHT22;8501;49.926;8.404;2023-04-24T01:22:57;12.30;99.90
16767;DHT22;8501;49.926;8.404;2023-04-24T01:25:24;12.30;99.90
16767;DHT22;8501;49.926;8.404;2023-04-24T01:27:51;12.30;99.90
16767;DHT22;8501;49.926;8.404;2023-04-24T01:30:17;12.20;99.90
16767;DHT22;8501;49.926;8.404;2023-04-24T01:32:42;12.20;99.90
16767;DHT22;8501;49.926;8.404;2023-04-24T01:35:10;12.20;99.90
16767;DHT22;8501;49.926;8.404;2023-04-24T01:37:36;12.20;99.90
16767;DHT22;8501;49.926;8.404;2023-04-24T01:40:04;12.20;99.90
16767;DHT22;8501;49.926;8.404;2023-04-24T01:42:30;12.20;99.90
16767;DHT22;8501;49.926;8.404;2023-04-24T01:44:56;12.20;99.90
16767;DHT22;8501;49.926;8.404;2023-04-24T01:47:23;12.20;99.90
16767;DHT22;8501;49.926;8.404;2023-04-24T01:49:50;12.20;99.90
16767;DHT22;8501;49.926;8.404;2023-04-24T01:52:16;12.20;99.90
16767;DHT22;8501;49.926;8.404;2023-04-24T01:54:43;12.20;99.90
16767;DHT22;8501;49.926;8.404;2023-04-24T01:57:09;12.30;99.90
16767;DHT22;8501;49.926;8.404;2023-04-24T01:59:34;12.20;99.90
16767;DHT22;8501;49.926;8.404;2023-04-24T02:02:02;12.20;99.90
16767;DHT22;8501;49.926;8.404;2023-04-24T02:04:27;12.20;99.90
16767;DHT22;8501;49.926;8.404;2023-04-24T02:06:53;12.20;99.90
16767;DHT22;8501;49.926;8.404;2023-04-24T02:09:19;12.20;99.90
16767;DHT22;8501;49.926;8.404;2023-04-24T02:11:44;12.20;99.90
16767;DHT22;8501;49.926;8.404;2023-04-24T02:14:10;12.20;99.90
16767;DHT22;8501;49.926;8.404;2023-04-24T02:16:35;12.20;99.90
16767;DHT22;8501;49.926;8.404;2023-04-24T02:19:02;12.20;99.90
16767;DHT22;8501;49.926;8.404;2023-04-24T02:21:28;12.30;99.90
16767;DHT22;8501;49.926;8.404;2023-04-24T02:23:53;12.20;99.90
16767;DHT22;8501;49.926;8.404;2023-04-24T02:26:19;12.20;99.90
16767;DHT22;8501;49.926;8.404;2023-04-24T02:28:45;12.20;99.90
16767;DHT22;8501;49.926;8.404;2023-04-24T02:31:10;12.20;99.90
16767;DHT22;8501;49.926;8.404;2023-04-24T02:33:36;12.20;99.90
16767;DHT22;8501;49.926;8.404;2023-04-24T02:36:02;12.10;99.90
16767;DHT22;8501;49.926;8.404;2023-04-24T02:38:28;12.20;99.90
16767;DHT22;8501;49.926;8.404;2023-04-24T02:40:54;12.20;99.90
16767;DHT22;8501;49.926;8.404;2023-04-24T02:43:19;12.10;99.90
16767;DHT22;8501;49.926;8.404;2023-04-24T02:45:45;12.20;99.90
16767;DHT22;8501;49.926;8.404;2023-04-24T02:48:11;12.20;99.90
16767;DHT22;8501;49.926;8.404;2023-04-24T02:50:37;12.20;99.90
16767;DHT22;8501;49.926;8.404;2023-04-24T02:53:02;12.20;99.90
16767;DHT22;8501;49.926;8.404;2023-04-24T02:55:28;12.20;99.90
16767;DHT22;8501;49.926;8.404;2023-04-24T02:57:53;12.20;99.90
16767;DHT22;8501;49.926;8.404;2023-04-24T03:00:19;12.20;99.90
16767;DHT22;8501;49.926;8.404;2023-04-24T03:02:45;12.30;99.90
16767;DHT22;8501;49.926;8.404;2023-04-24T03:05:11;12.30;99.90
16767;DHT22;8501;49.926;8.404;2023-04-24T03:07:39;12.40;99.90
16767;DHT22;8501;49.926;8.404;2023-04-24T03:10:06;12.40;99.90
16767;DHT22;8501;49.926;8.404;2023-04-24T03:12:32;12.30;99.90
16767;DHT22;8501;49.926;8.404;2023-04-24T03:14:57;12.30;99.90
16767;DHT22;8501;49.926;8.404;2023-04-24T03:17:23;12.30;99.90
16767;DHT22;8501;49.926;8.404;2023-04-24T03:19:48;12.20;99.90
16767;DHT22;8501;49.926;8.404;2023-04-24T03:22:14;12.20;99.90
16767;DHT22;8501;49.926;8.404;2023-04-24T03:24:39;12.20;99.90
16767;DHT22;8501;49.926;8.404;2023-04-24T03:27:05;12.20;99.90
16767;DHT22;8501;49.926;8.404;2023-04-24T03:29:31;12.20;99.90
16767;DHT22;8501;49.926;8.404;2023-04-24T03:31:56;12.20;99.90
16767;DHT22;8501;49.926;8.404;2023-04-24T03:34:22;12.20;99.90
16767;DHT22;8501;49.926;8.404;2023-04-24T03:36:47;12.20;99.90
16767;DHT22;8501;49.926;8.404;2023-04-24T03:39:13;12.20;99.90
16767;DHT22;8501;49.926;8.404;2023-04-24T03:41:39;12.30;99.90
16767;DHT22;8501;49.926;8.404;2023-04-24T03:44:05;12.20;99.90
16767;DHT22;8501;49.926;8.404;2023-04-24T03:46:31;12.10;99.90
16767;DHT22;8501;49.926;8.404;2023-04-24T03:48:56;12.10;99.90
16767;DHT22;8501;49.926;8.404;2023-04-24T03:51:22;12.10;99.90
16767;DHT22;8501;49.926;8.404;2023-04-24T03:53:48;12.10;99.90
16767;DHT22;8501;49.926;8.404;2023-04-24T03:56:14;12.10;99.90
16767;DHT22;8501;49.926;8.404;2023-04-24T03:58:39;12.10;99.90
16767;DHT22;8501;49.926;8.404;2023-04-24T04:01:05;12.00;99.90
16767;DHT22;8501;49.926;8.404;2023-04-24T04:03:31;12.00;99.90
16767;DHT22;8501;49.926;8.404;2023-04-24T04:05:57;12.00;99.90
16767;DHT22;8501;49.926;8.404;2023-04-24T04:08:22;11.90;99.90
16767;DHT22;8501;49.926;8.404;2023-04-24T04:10:48;11.80;99.90
16767;DHT22;8501;49.926;8.404;2023-04-24T04:13:13;11.80;99.90
16767;DHT22;8501;49.926;8.404;2023-04-24T04:15:39;11.80;99.90
16767;DHT22;8501;49.926;8.404;2023-04-24T04:18:05;11.70;99.90
16767;DHT22;8501;49.926;8.404;2023-04-24T04:20:31;11.60;99.90
16767;DHT22;8501;49.926;8.404;2023-04-24T04:22:56;11.60;99.90
16767;DHT22;8501;49.926;8.404;2023-04-24T04:25:22;11.60;99.90
16767;DHT22;8501;49.926;8.404;2023-04-24T04:27:48;11.60;99.90
16767;DHT22;8501;49.926;8.404;2023-04-24T04:30:14;11.60;99.90
16767;DHT22;8501;49.926;8.404;2023-04-24T04:32:40;11.50;99.90
16767;DHT22;8501;49.926;8.404;2023-04-24T04:35:06;11.50;99.90
16767;DHT22;8501;49.926;8.404;2023-04-24T04:37:34;11.50;99.90
16767;DHT22;8501;49.926;8.404;2023-04-24T04:40:00;11.50;99.90
16767;DHT22;8501;49.926;8.404;2023-04-24T04:42:26;11.40;99.90
16767;DHT22;8501;49.926;8.404;2023-04-24T04:44:52;11.40;99.90
16767;DHT22;8501;49.926;8.404;2023-04-24T04:47:20;11.40;99.90
16767;DHT22;8501;49.926;8.404;2023-04-24T04:49:47;11.40;99.90
16767;DHT22;8501;49.926;8.404;2023-04-24T04:52:13;11.30;99.90
16767;DHT22;8501;49.926;8.404;2023-04-24T04:54:38;11.40;99.90
16767;DHT22;8501;49.926;8.404;2023-04-24T04:57:04;11.40;99.90
16767;DHT22;8501;49.926;8.404;2023-04-24T04:59:30;11.40;99.90
16767;DHT22;8501;49.926;8.404;2023-04-24T05:01:56;11.40;99.90
16767;DHT22;8501;49.926;8.404;2023-04-24T05:04:21;11.30;99.90
16767;DHT22;8501;49.926;8.404;2023-04-24T05:06:47;11.30;99.90
16767;DHT22;8501;49.926;8.404;2023-04-24T05:09:12;11.30;99.90
16767;DHT22;8501;49.926;8.404;2023-04-24T05:11:38;11.30;99.90
16767;DHT22;8501;49.926;8.404;2023-04-24T05:14:03;11.30;99.90
16767;DHT22;8501;49.926;8.404;2023-04-24T05:16:29;11.30;99.90
16767;DHT22;8501;49.926;8.404;2023-04-24T05:18:56;11.20;99.90
16767;DHT22;8501;49.926;8.404;2023-04-24T05:21:21;11.10;99.90
16767;DHT22;8501;49.926;8.404;2023-04-24T05:23:47;11.10;99.90
16767;DHT22;8501;49.926;8.404;2023-04-24T05:26:13;11.20;99.90
16767;DHT22;8501;49.926;8.404;2023-04-24T05:28:38;11.20;99.90
16767;DHT22;8501;49.926;8.404;2023-04-24T05:31:04;11.20;99.90
16767;DHT22;8501;49.926;8.404;2023-04-24T05:33:30;11.20;99.90
16767;DHT22;8501;49.926;8.404;2023-04-24T05:35:55;11.10;99.90
16767;DHT22;8501;49.926;8.404;2023-04-24T05:38:21;11.10;99.90
16767;DHT22;8501;49.926;8.404;2023-04-24T05:40:47;11.10;99.90
16767;DHT22;8501;49.926;8.404;2023-04-24T05:43:12;11.20;99.90
16767;DHT22;8501;49.926;8.404;2023-04-24T05:45:38;11.20;99.90
16767;DHT22;8501;49.926;8.404;2023-04-24T05:48:04;11.20;99.90
16767;DHT22;8501;49.926;8.404;2023-04-24T05:50:30;11.30;99.90
16767;DHT22;8501;49.926;8.404;2023-04-24T05:52:55;11.30;99.90
16767;DHT22;8501;49.926;8.404;2023-04-24T05:55:23;11.30;99.90
16767;DHT22;8501;49.926;8.404;2023-04-24T05:57:50;11.20;99.90
16767;DHT22;8501;49.926;8.404;2023-04-24T06:00:16;11.30;99.90
16767;DHT22;8501;49.926;8.404;2023-04-24T06:02:43;11.30;99.90
16767;DHT22;8501;49.926;8.404;2023-04-24T06:05:08;11.20;99.90
16767;DHT22;8501;49.926;8.404;2023-04-24T06:07:34;11.20;99.90
16767;DHT22;8501;49.926;8.404;2023-04-24T06:10:00;11.20;99.90
16767;DHT22;8501;49.926;8.404;2023-04-24T06:12:26;11.30;99.90
16767;DHT22;8501;49.926;8.404;2023-04-24T06:14:52;11.30;99.90
16767;DHT22;8501;49.926;8.404;2023-04-24T06:17:18;11.40;99.90
16767;DHT22;8501;49.926;8.404;2023-04-24T06:19:44;11.40;99.90
16767;DHT22;8501;49.926;8.404;2023-04-24T06:22:09;11.40;99.90
16767;DHT22;8501;49.926;8.404;2023-04-24T06:24:35;11.40;99.90
16767;DHT22;8501;49.926;8.404;2023-04-24T06:27:00;11.50;99.90
16767;DHT22;8501;49.926;8.404;2023-04-24T06:29:27;11.50;99.90
16767;DHT22;8501;49.926;8.404;2023-04-24T06:31:52;11.60;99.90
16767;DHT22;8501;49.926;8.404;2023-04-24T06:34:18;11.60;99.90
16767;DHT22;8501;49.926;8.404;2023-04-24T06:36:44;11.70;99.90
16767;DHT22;8501;49.926;8.404;2023-04-24T06:39:09;11.80;99.90
16767;DHT22;8501;49.926;8.404;2023-04-24T06:41:35;11.80;99.90
16767;DHT22;8501;49.926;8.404;2023-04-24T06:44:01;12.00;99.90
16767;DHT22;8501;49.926;8.404;2023-04-24T06:46:26;11.90;99.90
16767;DHT22;8501;49.926;8.404;2023-04-24T06:48:53;11.90;99.90
16767;DHT22;8501;49.926;8.404;2023-04-24T06:51:23;11.90;99.90
16767;DHT22;8501;49.926;8.404;2023-04-24T06:53:49;11.90;99.90
16767;DHT22;8501;49.926;8.404;2023-04-24T06:56:15;12.00;99.90
16767;DHT22;8501;49.926;8.404;2023-04-24T06:58:41;12.00;99.90
16767;DHT22;8501;49.926;8.404;2023-04-24T07:01:07;12.00;99.90
16767;DHT22;8501;49.926;8.404;2023-04-24T07:03:32;12.10;99.90
16767;DHT22;8501;49.926;8.404;2023-04-24T07:05:58;12.00;99.90
16767;DHT22;8501;49.926;8.404;2023-04-24T07:08:24;12.00;99.90
16767;DHT22;8501;49.926;8.404;2023-04-24T07:10:50;12.00;99.90
16767;DHT22;8501;49.926;8.404;2023-04-24T07:13:16;12.10;99.90
16767;DHT22;8501;49.926;8.404;2023-04-24T07:15:42;12.10;99.90
16767;DHT22;8501;49.926;8.404;2023-04-24T07:18:08;12.20;99.90
16767;DHT22;8501;49.926;8.404;2023-04-24T07:20:34;12.20;99.90
16767;DHT22;8501;49.926;8.404;2023-04-24T07:23:00;12.30;99.90
16767;DHT22;8501;49.926;8.404;2023-04-24T07:25:25;12.30;99.90
16767;DHT22;8501;49.926;8.404;2023-04-24T07:27:51;12.40;99.90
16767;DHT22;8501;49.926;8.404;2023-04-24T07:30:16;12.40;99.90
16767;DHT22;8501;49.926;8.404;2023-04-24T07:32:42;12.50;99.90
16767;DHT22;8501;49.926;8.404;2023-04-24T07:35:08;12.60;99.90
16767;DHT22;8501;49.926;8.404;2023-04-24T07:37:35;12.50;99.90
16767;DHT22;8501;49.926;8.404;2023-04-24T07:40:00;12.50;99.90
16767;DHT22;8501;49.926;8.404;2023-04-24T07:42:26;12.50;99.90
16767;DHT22;8501;49.926;8.404;2023-04-24T07:44:52;12.50;99.90
16767;DHT22;8501;49.926;8.404;2023-04-24T07:47:18;12.60;99.90
16767;DHT22;8501;49.926;8.404;2023-04-24T07:49:44;12.70;99.90
16767;DHT22;8501;49.926;8.404;2023-04-24T07:52:09;12.70;99.90
16767;DHT22;8501;49.926;8.404;2023-04-24T07:54:35;12.60;99.90
16767;DHT22;8501;49.926;8.404;2023-04-24T07:57:02;12.50;99.90
16767;DHT22;8501;49.926;8.404;2023-04-24T07:59:27;12.40;99.90
16767;DHT22;8501;49.926;8.404;2023-04-24T08:01:53;12.50;99.90
16767;DHT22;8501;49.926;8.404;2023-04-24T08:04:19;12.50;99.90
16767;DHT22;8501;49.926;8.404;2023-04-24T08:06:45;12.50;99.90
16767;DHT22;8501;49.926;8.404;2023-04-24T08:09:12;12.50;99.90
16767;DHT22;8501;49.926;8.404;2023-04-24T08:11:37;12.50;99.90
16767;DHT22;8501;49.926;8.404;2023-04-24T08:14:03;12.50;99.90
16767;DHT22;8501;49.926;8.404;2023-04-24T08:16:30;12.60;99.90
16767;DHT22;8501;49.926;8.404;2023-04-24T08:18:55;12.70;99.90
16767;DHT22;8501;49.926;8.404;2023-04-24T08:21:21;12.80;99.90
16767;DHT22;8501;49.926;8.404;2023-04-24T08:23:46;12.90;99.90
16767;DHT22;8501;49.926;8.404;2023-04-24T08:26:13;12.80;99.90
16767;DHT22;8501;49.926;8.404;2023-04-24T08:28:39;12.70;99.90
16767;DHT22;8501;49.926;8.404;2023-04-24T08:31:04;12.80;99.90
16767;DHT22;8501;49.926;8.404;2023-04-24T08:33:30;12.80;99.90
16767;DHT22;8501;49.926;8.404;2023-04-24T08:36:06;12.80;99.90
16767;DHT22;8501;49.926;8.404;2023-04-24T08:38:33;12.90;99.90
16767;DHT22;8501;49.926;8.404;2023-04-24T08:41:00;12.90;99.90
16767;DHT22;8501;49.926;8.404;2023-04-24T08:43:26;12.90;99.90
16767;DHT22;8501;49.926;8.404;2023-04-24T08:45:54;12.90;99.90
16767;DHT22;8501;49.926;8.404;2023-04-24T08:48:22;12.90;99.90
16767;DHT22;8501;49.926;8.404;2023-04-24T08:50:51;12.80;99.90
16767;DHT22;8501;49.926;8.404;2023-04-24T08:53:18;12.80;99.90
16767;DHT22;8501;49.926;8.404;2023-04-24T08:55:46;12.90;99.90
16767;DHT22;8501;49.926;8.404;2023-04-24T08:58:13;12.90;99.90
16767;DHT22;8501;49.926;8.404;2023-04-24T09:00:39;12.80;99.90
16767;DHT22;8501;49.926;8.404;2023-04-24T09:03:06;12.70;99.90
16767;DHT22;8501;49.926;8.404;2023-04-24T09:05:32;12.60;99.90
16767;DHT22;8501;49.926;8.404;2023-04-24T09:08:02;12.60;99.90
16767;DHT22;8501;49.926;8.404;2023-04-24T09:10:28;12.40;99.90
16767;DHT22;8501;49.926;8.404;2023-04-24T09:12:56;12.50;99.90
16767;DHT22;8501;49.926;8.404;2023-04-24T09:15:24;12.50;99.90
16767;DHT22;8501;49.926;8.404;2023-04-24T09:17:50;12.50;99.90
16767;DHT22;8501;49.926;8.404;2023-04-24T09:20:15;12.60;99.90
16767;DHT22;8501;49.926;8.404;2023-04-24T09:22:42;12.60;99.90
16767;DHT22;8501;49.926;8.404;2023-04-24T09:25:09;12.60;99.90
16767;DHT22;8501;49.926;8.404;2023-04-24T09:27:42;12.70;99.90
16767;DHT22;8501;49.926;8.404;2023-04-24T09:30:09;12.70;99.90
16767;DHT22;8501;49.926;8.404;2023-04-24T09:32:35;12.80;99.90
16767;DHT22;8501;49.926;8.404;2023-04-24T09:35:11;12.80;99.90
16767;DHT22;8501;49.926;8.404;2023-04-24T09:37:41;12.70;99.90
16767;DHT22;8501;49.926;8.404;2023-04-24T09:40:08;12.70;99.90
16767;DHT22;8501;49.926;8.404;2023-04-24T09:42:35;12.60;99.90
16767;DHT22;8501;49.926;8.404;2023-04-24T09:45:01;12.70;99.90
16767;DHT22;8501;49.926;8.404;2023-04-24T09:47:27;12.70;99.90
16767;DHT22;8501;49.926;8.404;2023-04-24T09:49:57;12.90;99.90
16767;DHT22;8501;49.926;8.404;2023-04-24T09:52:23;12.90;99.90
16767;DHT22;8501;49.926;8.404;2023-04-24T09:54:53;13.00;99.90
16767;DHT22;8501;49.926;8.404;2023-04-24T09:57:19;13.20;99.90
16767;DHT22;8501;49.926;8.404;2023-04-24T09:59:46;13.20;99.90
16767;DHT22;8501;49.926;8.404;2023-04-24T10:02:19;13.10;99.90
16767;DHT22;8501;49.926;8.404;2023-04-24T10:04:55;13.00;99.90
16767;DHT22;8501;49.926;8.404;2023-04-24T10:07:21;12.90;99.90
16767;DHT22;8501;49.926;8.404;2023-04-24T10:09:47;12.80;99.90
16767;DHT22;8501;49.926;8.404;2023-04-24T10:12:13;12.80;99.90
16767;DHT22;8501;49.926;8.404;2023-04-24T10:14:40;12.80;99.90
16767;DHT22;8501;49.926;8.404;2023-04-24T10:17:06;12.70;99.90
16767;DHT22;8501;49.926;8.404;2023-04-24T10:19:32;12.80;99.90
16767;DHT22;8501;49.926;8.404;2023-04-24T10:21:59;12.90;99.90
16767;DHT22;8501;49.926;8.404;2023-04-24T10:24:25;13.00;99.90
16767;DHT22;8501;49.926;8.404;2023-04-24T10:26:51;13.20;99.90
16767;DHT22;8501;49.926;8.404;2023-04-24T10:29:19;13.30;99.90
16767;DHT22;8501;49.926;8.404;2023-04-24T10:31:44;13.40;99.90
16767;DHT22;8501;49.926;8.404;2023-04-24T10:34:15;13.50;99.90
16767;DHT22;8501;49.926;8.404;2023-04-24T10:37:07;13.50;99.90
16767;DHT22;8501;49.926;8.404;2023-04-24T10:39:33;13.50;99.90
16767;DHT22;8501;49.926;8.404;2023-04-24T10:41:59;13.60;99.90
16767;DHT22;8501;49.926;8.404;2023-04-24T10:44:25;13.50;99.90
16767;DHT22;8501;49.926;8.404;2023-04-24T10:46:55;13.30;99.90
16767;DHT22;8501;49.926;8.404;2023-04-24T10:49:31;13.10;99.90
16767;DHT22;8501;49.926;8.404;2023-04-24T10:52:01;12.80;99.90
16767;DHT22;8501;49.926;8.404;2023-04-24T10:54:29;12.60;99.90
16767;DHT22;8501;49.926;8.404;2023-04-24T11:02:39;12.30;99.90
16767;DHT22;8501;49.926;8.404;2023-04-24T11:05:06;12.30;99.90
16767;DHT22;8501;49.926;8.404;2023-04-24T11:10:53;12.40;99.90
16767;DHT22;8501;49.926;8.404;2023-04-24T11:13:23;12.40;99.90
16767;DHT22;8501;49.926;8.404;2023-04-24T11:18:51;12.30;99.90
16767;DHT22;8501;49.926;8.404;2023-04-24T11:21:20;12.30;99.90
16767;DHT22;8501;49.926;8.404;2023-04-24T11:23:46;12.30;99.90
16767;DHT22;8501;49.926;8.404;2023-04-24T11:26:21;12.30;99.90
16767;DHT22;8501;49.926;8.404;2023-04-24T11:28:48;12.30;99.90
16767;DHT22;8501;49.926;8.404;2023-04-24T11:31:37;12.20;99.90
16767;DHT22;8501;49.926;8.404;2023-04-24T11:34:11;12.20;99.90
16767;DHT22;8501;49.926;8.404;2023-04-24T11:36:37;12.10;99.90
16767;DHT22;8501;49.926;8.404;2023-04-24T11:39:03;12.20;99.90
16767;DHT22;8501;49.926;8.404;2023-04-24T11:41:29;12.30;99.90
16767;DHT22;8501;49.926;8.404;2023-04-24T11:43:56;12.40;99.90
16767;DHT22;8501;49.926;8.404;2023-04-24T11:46:22;12.50;99.90
16767;DHT22;8501;49.926;8.404;2023-04-24T11:48:47;12.50;99.90
16767;DHT22;8501;49.926;8.404;2023-04-24T11:51:14;12.50;99.90
16767;DHT22;8501;49.926;8.404;2023-04-24T11:53:39;12.60;99.90
16767;DHT22;8501;49.926;8.404;2023-04-24T11:56:05;12.80;99.90
16767;DHT22;8501;49.926;8.404;2023-04-24T11:58:38;12.70;99.90
16767;DHT22;8501;49.926;8.404;2023-04-24T12:01:05;12.70;99.90
16767;DHT22;8501;49.926;8.404;2023-04-24T12:03:30;12.90;99.90
16767;DHT22;8501;49.926;8.404;2023-04-24T12:06:10;13.00;99.90
16767;DHT22;8501;49.926;8.404;2023-04-24T12:08:36;13.10;99.90
16767;DHT22;8501;49.926;8.404;2023-04-24T12:11:04;13.10;99.90
16767;DHT22;8501;49.926;8.404;2023-04-24T12:13:30;13.20;99.90
16767;DHT22;8501;49.926;8.404;2023-04-24T12:15:59;13.40;99.90
16767;DHT22;8501;49.926;8.404;2023-04-24T12:18:25;13.50;99.90
16767;DHT22;8501;49.926;8.404;2023-04-24T12:20:51;13.60;99.90
16767;DHT22;8501;49.926;8.404;2023-04-24T12:23:27;13.60;99.90
16767;DHT22;8501;49.926;8.404;2023-04-24T12:26:00;13.70;99.90
16767;DHT22;8501;49.926;8.404;2023-04-24T12:28:35;13.80;99.90
16767;DHT22;8501;49.926;8.404;2023-04-24T12:31:01;14.10;99.90
16767;DHT22;8501;49.926;8.404;2023-04-24T12:33:26;14.20;99.90
16767;DHT22;8501;49.926;8.404;2023-04-24T12:35:52;14.00;99.90
16767;DHT22;8501;49.926;8.404;2023-04-24T12:38:22;13.90;99.90
16767;DHT22;8501;49.926;8.404;2023-04-24T12:41:05;13.80;99.90
16767;DHT22;8501;49.926;8.404;2023-04-24T12:43:30;13.80;99.90
16767;DHT22;8501;49.926;8.404;2023-04-24T12:45:56;13.80;99.90
16767;DHT22;8501;49.926;8.404;2023-04-24T12:48:22;13.90;99.90
16767;DHT22;8501;49.926;8.404;2023-04-24T12:50:48;13.90;99.90
16767;DHT22;8501;49.926;8.404;2023-04-24T12:53:14;14.20;99.90
16767;DHT22;8501;49.926;8.404;2023-04-24T12:55:40;14.30;99.90
16767;DHT22;8501;49.926;8.404;2023-04-24T12:58:06;14.50;99.90
16767;DHT22;8501;49.926;8.404;2023-04-24T13:00:32;14.50;99.90
16767;DHT22;8501;49.926;8.404;2023-04-24T13:02:57;14.60;99.90
16767;DHT22;8501;49.926;8.404;2023-04-24T13:05:23;14.50;99.90
16767;DHT22;8501;49.926;8.404;2023-04-24T13:07:49;14.30;99.90
16767;DHT22;8501;49.926;8.404;2023-04-24T13:10:14;14.20;99.90
16767;DHT22;8501;49.926;8.404;2023-04-24T13:12:40;14.20;99.90
16767;DHT22;8501;49.926;8.404;2023-04-24T13:15:06;14.30;99.90
16767;DHT22;8501;49.926;8.404;2023-04-24T13:17:32;14.50;99.90
16767;DHT22;8501;49.926;8.404;2023-04-24T13:19:58;14.60;99.90
16767;DHT22;8501;49.926;8.404;2023-04-24T13:22:24;14.60;99.90
16767;DHT22;8501;49.926;8.404;2023-04-24T13:24:50;14.50;99.90
16767;DHT22;8501;49.926;8.404;2023-04-24T13:27:16;14.40;99.90
16767;DHT22;8501;49.926;8.404;2023-04-24T13:29:42;14.30;99.90
16767;DHT22;8501;49.926;8.404;2023-04-24T13:32:08;14.20;99.90
16767;DHT22;8501;49.926;8.404;2023-04-24T13:34:34;14.20;99.90
16767;DHT22;8501;49.926;8.404;2023-04-24T13:37:02;14.20;99.90
16767;DHT22;8501;49.926;8.404;2023-04-24T13:39:31;14.20;99.90
16767;DHT22;8501;49.926;8.404;2023-04-24T13:41:57;14.40;99.90
16767;DHT22;8501;49.926;8.404;2023-04-24T13:44:23;14.70;99.90
16767;DHT22;8501;49.926;8.404;2023-04-24T13:46:51;14.90;99.90
16767;DHT22;8501;49.926;8.404;2023-04-24T13:49:19;15.00;99.90
16767;DHT22;8501;49.926;8.404;2023-04-24T13:51:45;15.00;99.90
16767;DHT22;8501;49.926;8.404;2023-04-24T13:54:11;15.10;99.90
16767;DHT22;8501;49.926;8.404;2023-04-24T13:56:37;15.00;99.90
16767;DHT22;8501;49.926;8.404;2023-04-24T13:59:02;14.90;99.90
16767;DHT22;8501;49.926;8.404;2023-04-24T14:01:28;14.90;99.90
16767;DHT22;8501;49.926;8.404;2023-04-24T14:03:54;14.80;99.90
16767;DHT22;8501;49.926;8.404;2023-04-24T14:06:21;14.60;99.90
16767;DHT22;8501;49.926;8.404;2023-04-24T14:08:47;14.40;99.90
16767;DHT22;8501;49.926;8.404;2023-04-24T14:11:13;14.40;99.90
16767;DHT22;8501;49.926;8.404;2023-04-24T14:13:41;14.30;99.90
16767;DHT22;8501;49.926;8.404;2023-04-24T14:16:07;14.40;99.90
16767;DHT22;8501;49.926;8.404;2023-04-24T14:18:33;14.30;99.90
16767;DHT22;8501;49.926;8.404;2023-04-24T14:20:59;14.40;99.90
16767;DHT22;8501;49.926;8.404;2023-04-24T14:23:26;14.40;99.90
16767;DHT22;8501;49.926;8.404;2023-04-24T14:25:51;14.30;99.90
16767;DHT22;8501;49.926;8.404;2023-04-24T14:28:21;14.20;99.90
16767;DHT22;8501;49.926;8.404;2023-04-24T14:30:47;14.30;99.90
16767;DHT22;8501;49.926;8.404;2023-04-24T14:33:13;14.30;99.90
16767;DHT22;8501;49.926;8.404;2023-04-24T14:35:39;14.30;99.90
16767;DHT22;8501;49.926;8.404;2023-04-24T14:38:05;14.20;99.90
16767;DHT22;8501;49.926;8.404;2023-04-24T14:40:31;14.20;99.90
16767;DHT22;8501;49.926;8.404;2023-04-24T14:42:58;14.20;99.90
16767;DHT22;8501;49.926;8.404;2023-04-24T14:45:24;14.40;99.90
16767;DHT22;8501;49.926;8.404;2023-04-24T14:47:49;14.80;99.90
16767;DHT22;8501;49.926;8.404;2023-04-24T14:50:15;14.70;99.90
16767;DHT22;8501;49.926;8.404;2023-04-24T14:52:41;14.50;99.90
16767;DHT22;8501;49.926;8.404;2023-04-24T14:55:06;14.50;99.90
16767;DHT22;8501;49.926;8.404;2023-04-24T14:57:33;14.90;99.90
16767;DHT22;8501;49.926;8.404;2023-04-24T14:59:59;15.10;99.90
16767;DHT22;8501;49.926;8.404;2023-04-24T15:02:24;15.40;99.90
16767;DHT22;8501;49.926;8.404;2023-04-24T15:04:50;15.80;99.90
16767;DHT22;8501;49.926;8.404;2023-04-24T15:07:15;16.00;99.90
16767;DHT22;8501;49.926;8.404;2023-04-24T15:09:41;15.90;99.90
16767;DHT22;8501;49.926;8.404;2023-04-24T15:12:08;15.90;99.90
16767;DHT22;8501;49.926;8.404;2023-04-24T15:14:33;15.60;99.90
16767;DHT22;8501;49.926;8.404;2023-04-24T15:16:59;15.40;99.90
16767;DHT22;8501;49.926;8.404;2023-04-24T15:19:25;15.20;99.90
16767;DHT22;8501;49.926;8.404;2023-04-24T15:21:50;15.60;99.90
16767;DHT22;8501;49.926;8.404;2023-04-24T15:24:16;15.50;99.90
16767;DHT22;8501;49.926;8.404;2023-04-24T15:26:41;15.30;99.90
16767;DHT22;8501;49.926;8.404;2023-04-24T15:29:07;15.10;99.90
16767;DHT22;8501;49.926;8.404;2023-04-24T15:31:32;15.00;99.90
16767;DHT22;8501;49.926;8.404;2023-04-24T15:33:58;15.20;99.90
16767;DHT22;8501;49.926;8.404;2023-04-24T15:36:23;15.40;99.90
16767;DHT22;8501;49.926;8.404;2023-04-24T15:38:49;15.30;99.90
16767;DHT22;8501;49.926;8.404;2023-04-24T15:41:15;15.20;99.90
16767;DHT22;8501;49.926;8.404;2023-04-24T15:43:40;15.10;99.90
16767;DHT22;8501;49.926;8.404;2023-04-24T15:46:06;14.80;99.90
16767;DHT22;8501;49.926;8.404;2023-04-24T15:48:32;14.80;99.90
16767;DHT22;8501;49.926;8.404;2023-04-24T15:50:58;14.80;99.90
16767;DHT22;8501;49.926;8.404;2023-04-24T15:53:26;14.80;99.90